createdAt,value
2023-04-18T00:00:37.902Z,63.08
2023-04-18T00:01:36.990Z,63.70
2023-04-18T00:02:38.188Z,63.43
2023-04-18T00:03:38.152Z,63.00
2023-04-18T00:04:37.078Z,62.73
2023-04-18T00:05:38.031Z,63.08
2023-04-18T00:06:38.083Z,61.96
2023-04-18T00:07:38.065Z,62.69
2023-04-18T00:08:38.062Z,62.16
2023-04-18T00:09:37.200Z,62.38
2023-04-18T00:10:37.102Z,61.24
2023-04-18T00:11:38.147Z,62.17
2023-04-18T00:12:38.212Z,61.92
2023-04-18T00:13:37.172Z,61.93
2023-04-18T00:14:38.202Z,61.35
2023-04-18T00:15:38.243Z,62.22
2023-04-18T00:16:38.326Z,59.96
2023-04-18T00:17:37.323Z,60.47
2023-04-18T00:18:37.315Z,61.44
2023-04-18T00:19:38.327Z,62.05
2023-04-18T00:20:38.357Z,61.51
2023-04-18T00:21:37.403Z,62.06
2023-04-18T00:22:37.444Z,61.90
2023-04-18T00:23:38.467Z,60.13
2023-04-18T00:24:38.462Z,59.83
2023-04-18T00:25:38.538Z,60.62
2023-04-18T00:26:38.566Z,61.00
2023-04-18T00:27:38.553Z,60.83
2023-04-18T00:28:38.595Z,59.52
2023-04-18T00:29:38.605Z,61.62
2023-04-18T00:30:38.688Z,59.06
2023-04-18T00:31:37.657Z,59.74
2023-04-18T00:32:38.733Z,60.55
2023-04-18T00:33:38.728Z,59.79
2023-04-18T00:34:38.741Z,58.03
2023-04-18T00:35:37.766Z,58.53
2023-04-18T00:36:38.801Z,60.78
2023-04-18T00:37:37.851Z,57.87
2023-04-18T00:38:38.879Z,59.30
2023-04-18T00:39:38.898Z,60.70
2023-04-18T00:40:38.910Z,60.74
2023-04-18T00:41:38.924Z,56.12
2023-04-18T00:42:38.952Z,59.71
2023-04-18T00:43:39.001Z,59.50
2023-04-18T00:44:39.030Z,55.92
2023-04-18T00:45:38.031Z,58.42
2023-04-18T00:46:39.150Z,57.92
2023-04-18T00:47:39.123Z,59.58
2023-04-18T00:48:39.139Z,58.89
2023-04-18T00:49:38.140Z,57.13
2023-04-18T00:50:38.176Z,56.67
2023-04-18T00:51:38.209Z,59.33
2023-04-18T00:52:38.243Z,56.42
2023-04-18T00:53:39.273Z,55.76
2023-04-18T00:54:38.294Z,56.57
2023-04-18T00:55:38.323Z,55.40
2023-04-18T00:56:38.348Z,58.21
2023-04-18T00:57:39.406Z,55.99
2023-04-18T00:58:38.402Z,57.73
2023-04-18T00:59:38.422Z,57.66
2023-04-18T01:00:39.624Z,58.43
2023-04-18T01:01:38.721Z,55.93
2023-04-18T01:02:38.594Z,56.76
2023-04-18T01:03:39.707Z,56.61
2023-04-18T01:04:39.616Z,56.45
2023-04-18T01:05:38.603Z,57.99
2023-04-18T01:06:39.625Z,56.30
2023-04-18T01:07:39.670Z,57.54
2023-04-18T01:08:39.668Z,55.71
2023-04-18T01:09:38.713Z,55.96
2023-04-18T01:10:38.733Z,56.36
2023-04-18T01:11:38.772Z,55.73
2023-04-18T01:12:39.798Z,54.52
2023-04-18T01:13:38.844Z,56.05
2023-04-18T01:14:39.857Z,54.86
2023-04-18T01:15:38.968Z,55.52
2023-04-18T01:16:40.057Z,55.79
2023-04-18T01:17:39.982Z,55.08
2023-04-18T01:18:39.968Z,55.38
2023-04-18T01:19:40.010Z,55.94
2023-04-18T01:20:39.077Z,54.67
2023-04-18T01:21:40.068Z,52.00
2023-04-18T01:22:40.130Z,53.71
2023-04-18T01:23:40.129Z,54.52
2023-04-18T01:24:40.153Z,56.35
2023-04-18T01:25:39.174Z,52.84
2023-04-18T01:26:40.215Z,51.24
2023-04-18T01:27:40.258Z,53.02
2023-04-18T01:28:40.274Z,53.53
2023-04-18T01:29:40.315Z,53.79
2023-04-18T01:30:39.331Z,51.69
2023-04-18T01:31:39.437Z,52.32
2023-04-18T01:32:40.539Z,52.45
2023-04-18T01:33:39.428Z,51.15
2023-04-18T01:34:40.457Z,52.66
2023-04-18T01:35:39.499Z,51.38
2023-04-18T01:36:39.528Z,52.82
2023-04-18T01:37:39.557Z,51.50
2023-04-18T01:38:40.599Z,51.66
2023-04-18T01:39:39.608Z,52.32
2023-04-18T01:40:39.630Z,51.52
2023-04-18T01:41:39.661Z,51.43
2023-04-18T01:42:39.776Z,49.90
2023-04-18T01:43:40.706Z,51.09
2023-04-18T01:44:40.734Z,49.10
2023-04-18T01:45:39.758Z,47.30
2023-04-18T01:46:40.850Z,47.08
2023-04-18T01:47:40.887Z,46.17
2023-04-18T01:48:39.842Z,45.96
2023-04-18T01:49:39.830Z,45.36
2023-04-18T01:50:40.848Z,46.09
2023-04-18T01:51:40.862Z,47.16
2023-04-18T01:52:40.873Z,45.17
2023-04-18T01:53:39.877Z,44.18
2023-04-18T01:54:40.908Z,46.68
2023-04-18T01:55:39.902Z,45.74
2023-04-18T01:56:39.906Z,45.69
2023-04-18T01:57:40.925Z,45.83
2023-04-18T01:58:40.933Z,45.97
2023-04-18T01:59:39.925Z,47.82
2023-04-18T02:00:40.990Z,46.04
2023-04-18T02:01:40.930Z,44.62
2023-04-18T02:02:41.082Z,45.78
2023-04-18T02:03:41.150Z,44.87
2023-04-18T02:04:39.965Z,45.33
2023-04-18T02:05:40.027Z,45.07
2023-04-18T02:06:40.004Z,44.80
2023-04-18T02:07:40.993Z,46.00
2023-04-18T02:08:40.019Z,43.25
2023-04-18T02:09:40.998Z,45.83
2023-04-18T02:10:40.000Z,44.07
2023-04-18T02:11:40.013Z,44.59
2023-04-18T02:12:41.024Z,44.31
2023-04-18T02:13:41.065Z,43.57
2023-04-18T02:14:40.061Z,42.97
2023-04-18T02:15:41.070Z,44.72
2023-04-18T02:16:40.157Z,47.69
2023-04-18T02:17:41.173Z,44.92
2023-04-18T02:18:40.185Z,42.34
2023-04-18T02:19:40.185Z,44.69
2023-04-18T02:20:41.252Z,43.06
2023-04-18T02:21:41.260Z,44.14
2023-04-18T02:22:40.294Z,45.34
2023-04-18T02:23:41.330Z,44.27
2023-04-18T02:24:41.362Z,44.15
2023-04-18T02:25:41.420Z,42.59
2023-04-18T02:26:41.421Z,41.81
2023-04-18T02:27:41.480Z,43.76
2023-04-18T02:28:40.517Z,46.61
2023-04-18T02:29:41.599Z,42.53
2023-04-18T02:30:40.600Z,43.01
2023-04-18T02:31:40.670Z,43.91
2023-04-18T02:32:41.720Z,41.67
2023-04-18T02:33:41.743Z,42.59
2023-04-18T02:34:40.760Z,44.53
2023-04-18T02:35:41.804Z,41.88
2023-04-18T02:36:41.874Z,43.63
2023-04-18T02:37:41.907Z,43.03
2023-04-18T02:38:40.988Z,41.47
2023-04-18T02:39:40.996Z,42.87
2023-04-18T02:40:41.018Z,43.76
2023-04-18T02:41:42.076Z,43.26
2023-04-18T02:42:42.095Z,41.04
2023-04-18T02:43:42.155Z,42.34
2023-04-18T02:44:41.178Z,42.19
2023-04-18T02:45:42.213Z,40.79
2023-04-18T02:46:41.243Z,40.38
2023-04-18T02:47:53.815Z,41.67
2023-04-18T02:48:42.299Z,42.00
2023-04-18T02:49:42.263Z,42.66
2023-04-18T02:50:42.249Z,43.31
2023-04-18T02:51:42.259Z,42.11
2023-04-18T02:52:42.254Z,43.74
2023-04-18T02:53:42.252Z,42.12
2023-04-18T02:54:41.223Z,43.39
2023-04-18T02:55:41.226Z,44.08
2023-04-18T02:56:42.220Z,42.55
2023-04-18T02:57:42.199Z,42.22
2023-04-18T02:58:42.214Z,42.46
2023-04-18T02:59:41.199Z,39.46
2023-04-18T03:00:41.178Z,39.30
2023-04-18T03:01:42.243Z,41.59
2023-04-18T03:02:42.261Z,42.33
2023-04-18T03:03:42.164Z,40.23
2023-04-18T03:04:42.207Z,41.61
2023-04-18T03:05:42.150Z,40.48
2023-04-18T03:06:42.143Z,42.60
2023-04-18T03:07:41.142Z,42.73
2023-04-18T03:08:42.203Z,41.43
2023-04-18T03:09:41.126Z,42.84
2023-04-18T03:10:42.111Z,40.75
2023-04-18T03:11:42.121Z,40.99
2023-04-18T03:12:41.118Z,39.03
2023-04-18T03:13:42.111Z,39.04
2023-04-18T03:14:41.073Z,39.14
2023-04-18T03:15:42.129Z,40.35
2023-04-18T03:16:41.127Z,39.26
2023-04-18T03:17:41.240Z,39.27
2023-04-18T03:18:42.288Z,38.31
2023-04-18T03:19:42.304Z,39.17
2023-04-18T03:20:42.375Z,37.96
2023-04-18T03:21:42.438Z,39.09
2023-04-18T03:22:42.512Z,39.05
2023-04-18T03:23:42.585Z,37.51
2023-04-18T03:24:41.678Z,38.03
2023-04-18T03:25:42.697Z,37.96
2023-04-18T03:26:42.741Z,39.60
2023-04-18T03:27:42.834Z,38.60
2023-04-18T03:28:42.898Z,40.72
2023-04-18T03:29:42.945Z,37.34
2023-04-18T03:30:42.007Z,38.35
2023-04-18T03:31:42.214Z,38.32
2023-04-18T03:32:43.138Z,38.18
2023-04-18T03:33:43.191Z,37.85
2023-04-18T03:34:42.237Z,38.10
2023-04-18T03:35:43.299Z,38.99
2023-04-18T03:36:43.755Z,37.39
2023-04-18T03:37:42.423Z,36.21
2023-04-18T03:38:43.484Z,38.51
2023-04-18T03:39:43.569Z,37.42
2023-04-18T03:40:43.616Z,38.05
2023-04-18T03:41:42.640Z,36.71
2023-04-18T03:42:43.717Z,37.91
2023-04-18T03:43:42.766Z,36.56
2023-04-18T03:44:43.854Z,37.65
2023-04-18T03:45:43.889Z,37.66
2023-04-18T03:46:43.085Z,38.24
2023-04-18T03:47:43.042Z,35.58
2023-04-18T03:48:43.065Z,36.88
2023-04-18T03:49:43.126Z,36.49
2023-04-18T03:50:43.190Z,37.71
2023-04-18T03:51:43.245Z,35.67
2023-04-18T03:52:43.324Z,34.85
2023-04-18T03:53:44.370Z,37.57
2023-04-18T03:54:43.424Z,37.43
2023-04-18T03:55:44.477Z,34.78
2023-04-18T03:56:43.569Z,35.09
2023-04-18T03:57:43.600Z,37.09
2023-04-18T03:58:43.670Z,36.63
2023-04-18T03:59:44.698Z,32.95
2023-04-18T04:00:44.781Z,34.97
2023-04-18T04:01:43.860Z,36.88
2023-04-18T04:02:44.984Z,33.25
2023-04-18T04:03:44.983Z,34.40
2023-04-18T04:04:45.075Z,33.72
2023-04-18T04:05:45.070Z,32.58
2023-04-18T04:06:44.155Z,34.84
2023-04-18T04:07:45.191Z,34.85
2023-04-18T04:08:44.253Z,33.80
2023-04-18T04:09:45.314Z,35.40
2023-04-18T04:10:45.381Z,34.10
2023-04-18T04:11:45.564Z,36.46
2023-04-18T04:12:44.492Z,32.20
2023-04-18T04:13:45.553Z,34.62
2023-04-18T04:14:45.644Z,35.66
2023-04-18T04:15:44.700Z,35.60
2023-04-18T04:16:45.833Z,33.42
2023-04-18T04:17:45.856Z,33.94
2023-04-18T04:18:44.870Z,31.86
2023-04-18T04:19:44.934Z,33.14
2023-04-18T04:20:45.002Z,31.81
2023-04-18T04:21:45.055Z,33.01
2023-04-18T04:22:45.093Z,33.99
2023-04-18T04:23:46.183Z,32.45
2023-04-18T04:24:46.234Z,33.44
2023-04-18T04:25:46.286Z,31.75
2023-04-18T04:26:46.353Z,30.67
2023-04-18T04:27:46.442Z,34.32
2023-04-18T04:28:46.598Z,31.10
2023-04-18T04:29:46.539Z,33.64
2023-04-18T04:30:46.613Z,28.84
2023-04-18T04:31:46.692Z,30.26
2023-04-18T04:32:46.774Z,33.05
2023-04-18T04:33:45.802Z,30.09
2023-04-18T04:34:46.853Z,31.24
2023-04-18T04:35:46.917Z,31.99
2023-04-18T04:36:47.007Z,33.14
2023-04-18T04:37:46.054Z,29.74
2023-04-18T04:38:46.122Z,31.95
2023-04-18T04:39:46.274Z,31.96
2023-04-18T04:40:47.232Z,28.54
2023-04-18T04:41:47.314Z,28.78
2023-04-18T04:42:47.355Z,28.28
2023-04-18T04:43:46.546Z,31.78
2023-04-18T04:44:47.507Z,30.74
2023-04-18T04:45:47.570Z,30.41
2023-04-18T04:46:47.594Z,32.31
2023-04-18T04:47:46.693Z,31.95
2023-04-18T04:48:46.714Z,32.20
2023-04-18T04:49:46.788Z,29.52
2023-04-18T04:50:47.845Z,28.70
2023-04-18T04:51:47.899Z,28.29
2023-04-18T04:52:47.956Z,30.83
2023-04-18T04:53:48.018Z,26.78
2023-04-18T04:54:48.067Z,30.00
2023-04-18T04:55:48.114Z,29.48
2023-04-18T04:56:47.172Z,28.01
2023-04-18T04:57:48.250Z,28.22
2023-04-18T04:58:48.281Z,29.68
2023-04-18T04:59:48.372Z,30.93
2023-04-18T05:00:48.397Z,28.79
2023-04-18T05:01:47.487Z,30.11
2023-04-18T05:02:48.691Z,27.77
2023-04-18T05:03:48.697Z,27.94
2023-04-18T05:04:48.630Z,28.21
2023-04-18T05:05:47.758Z,30.22
2023-04-18T05:06:47.746Z,30.13
2023-04-18T05:07:48.783Z,26.66
2023-04-18T05:08:47.836Z,27.73
2023-04-18T05:09:47.894Z,29.39
2023-04-18T05:10:47.950Z,30.82
2023-04-18T05:11:47.988Z,29.22
2023-04-18T05:12:49.047Z,27.19
2023-04-18T05:13:48.108Z,27.93
2023-04-18T05:14:49.191Z,29.15
2023-04-18T05:15:48.253Z,27.29
2023-04-18T05:16:49.353Z,29.29
2023-04-18T05:17:49.350Z,27.93
2023-04-18T05:18:49.411Z,27.88
2023-04-18T05:19:48.484Z,28.50
2023-04-18T05:20:48.534Z,29.02
2023-04-18T05:21:49.579Z,28.08
2023-04-18T05:22:48.660Z,30.39
2023-04-18T05:23:49.709Z,29.57
2023-04-18T05:24:49.798Z,31.98
2023-04-18T05:25:49.819Z,29.76
2023-04-18T05:26:48.892Z,27.21
2023-04-18T05:27:49.946Z,27.71
2023-04-18T05:28:49.002Z,28.59
2023-04-18T05:29:50.110Z,28.13
2023-04-18T05:30:49.161Z,28.31
2023-04-18T05:31:49.228Z,29.34
2023-04-18T05:32:49.301Z,25.97
2023-04-18T05:33:50.309Z,32.01
2023-04-18T05:34:50.399Z,33.69
2023-04-18T05:35:50.434Z,32.86
2023-04-18T05:36:50.480Z,37.03
2023-04-18T05:37:50.537Z,35.13
2023-04-18T05:38:49.602Z,32.21
2023-04-18T05:39:49.684Z,34.32
2023-04-18T05:40:49.694Z,25.00
2023-04-18T05:41:50.742Z,21.18
2023-04-18T05:42:49.813Z,25.00
2023-04-18T05:44:02.412Z,24.94
2023-04-18T05:44:50.827Z,25.28
2023-04-18T05:45:50.885Z,25.85
2023-04-18T05:46:49.826Z,22.70
2023-04-18T05:47:50.857Z,23.44
2023-04-18T05:48:50.800Z,25.98
2023-04-18T05:49:50.794Z,29.38
2023-04-18T05:50:50.789Z,32.04
2023-04-18T05:51:50.781Z,28.06
2023-04-18T05:52:50.790Z,23.21
2023-04-18T05:53:50.758Z,10.60
2023-04-18T05:54:49.736Z,25.00
2023-04-18T05:55:50.764Z,26.00
2023-04-18T05:56:50.729Z,27.28
2023-04-18T05:57:50.729Z,39.36
2023-04-18T05:58:50.722Z,43.03
2023-04-18T05:59:50.736Z,58.48
2023-04-18T06:00:50.900Z,61.48
2023-04-18T06:00:59.264Z,25.00
2023-04-18T06:01:49.714Z,63.03
2023-04-18T06:01:50.017Z,25.00
2023-04-18T06:02:50.904Z,61.54
2023-04-18T06:03:04.760Z,25.00
2023-04-18T06:03:50.017Z,67.07
2023-04-18T06:04:50.790Z,68.40
2023-04-18T06:05:28.213Z,25.00
2023-04-18T06:05:50.722Z,68.55
2023-04-18T06:06:50.697Z,71.13
2023-04-18T06:07:47.767Z,25.00
2023-04-18T06:07:49.664Z,72.02
2023-04-18T06:08:48.023Z,25.00
2023-04-18T06:08:50.699Z,75.40
2023-04-18T06:09:50.645Z,78.45
2023-04-18T06:10:49.635Z,84.05
2023-04-18T06:11:49.632Z,88.69
2023-04-18T06:12:50.653Z,96.06
2023-04-18T06:12:56.775Z,25.00
2023-04-18T06:13:49.620Z,99.22
2023-04-18T06:13:57.676Z,25.00
2023-04-18T06:14:49.617Z,103.07
2023-04-18T06:14:56.731Z,25.00
2023-04-18T06:15:50.730Z,106.21
2023-04-18T06:16:50.603Z,108.31
2023-04-18T06:17:16.261Z,25.00
2023-04-18T06:17:50.621Z,112.31
2023-04-18T06:18:16.846Z,25.00
2023-04-18T06:18:50.589Z,116.89
2023-04-18T06:19:16.914Z,25.00
2023-04-18T06:19:50.583Z,119.25
2023-04-18T06:20:50.585Z,120.85
2023-04-18T06:21:35.972Z,25.00
2023-04-18T06:21:50.571Z,124.06
2023-04-18T06:22:38.768Z,25.00
2023-04-18T06:22:50.579Z,126.20
2023-04-18T06:23:36.503Z,25.00
2023-04-18T06:23:51.564Z,130.01
2023-04-18T06:24:50.535Z,131.86
2023-04-18T06:25:49.536Z,135.85
2023-04-18T06:26:50.532Z,137.49
2023-04-18T06:27:50.542Z,142.58
2023-04-18T06:28:50.517Z,146.97
2023-04-18T06:29:49.515Z,148.16
2023-04-18T06:30:50.506Z,151.09
2023-04-18T06:31:50.605Z,153.20
2023-04-18T06:32:50.564Z,154.81
2023-04-18T06:33:49.573Z,158.33
2023-04-18T06:34:50.581Z,161.47
2023-04-18T06:35:50.675Z,162.05
2023-04-18T06:36:49.761Z,165.35
2023-04-18T06:37:50.769Z,166.53
2023-04-18T06:38:49.811Z,168.70
2023-04-18T06:39:50.903Z,169.59
2023-04-18T06:40:50.934Z,170.20
2023-04-18T06:41:50.011Z,170.63
2023-04-18T06:42:51.060Z,172.39
2023-04-18T06:44:02.759Z,176.31
2023-04-18T06:44:34.580Z,25.00
2023-04-18T06:44:51.126Z,176.59
2023-04-18T06:45:50.162Z,177.79
2023-04-18T06:46:51.136Z,178.80
2023-04-18T06:47:50.125Z,183.43
2023-04-18T06:48:51.557Z,187.85
2023-04-18T06:49:51.099Z,189.70
2023-04-18T06:50:50.084Z,191.18
2023-04-18T06:51:03.976Z,25.00
2023-04-18T06:51:51.082Z,192.77
2023-04-18T06:52:51.049Z,196.97
2023-04-18T06:53:50.054Z,200.15
2023-04-18T06:54:51.042Z,205.18
2023-04-18T06:55:01.191Z,25.00
2023-04-18T06:55:51.441Z,205.15
2023-04-18T06:56:51.040Z,203.65
2023-04-18T06:57:31.109Z,25.00
2023-04-18T06:57:51.040Z,202.91
2023-04-18T06:58:50.020Z,200.30
2023-04-18T06:59:51.029Z,200.46
2023-04-18T07:00:51.021Z,202.19
2023-04-18T07:01:05.962Z,25.00
2023-04-18T07:01:50.012Z,200.57
2023-04-18T07:02:06.981Z,25.00
2023-04-18T07:02:51.115Z,201.17
2023-04-18T07:03:10.819Z,25.00
2023-04-18T07:03:51.090Z,208.06
2023-04-18T07:04:06.597Z,25.00
2023-04-18T07:04:50.981Z,208.45
2023-04-18T07:05:50.989Z,208.27
2023-04-18T07:06:25.506Z,25.00
2023-04-18T07:06:51.030Z,208.25
2023-04-18T07:07:26.145Z,25.00
2023-04-18T07:07:51.108Z,208.67
2023-04-18T07:08:26.262Z,25.00
2023-04-18T07:08:52.786Z,206.40
2023-04-18T07:09:51.161Z,206.53
2023-04-18T07:10:50.119Z,206.67
2023-04-18T07:10:59.001Z,25.00
2023-04-18T07:11:51.124Z,205.66
2023-04-18T07:12:51.115Z,207.29
2023-04-18T07:13:51.134Z,207.59
2023-04-18T07:14:50.124Z,206.98
2023-04-18T07:15:50.102Z,206.39
2023-04-18T07:16:51.244Z,206.92
2023-04-18T07:17:02.604Z,25.00
2023-04-18T07:17:51.102Z,207.26
2023-04-18T07:18:51.080Z,207.68
2023-04-18T07:19:51.133Z,205.80
2023-04-18T07:20:50.055Z,206.70
2023-04-18T07:21:51.035Z,203.41
2023-04-18T07:22:08.106Z,25.00
2023-04-18T07:22:50.049Z,205.75
2023-04-18T07:23:50.019Z,202.87
2023-04-18T07:24:51.056Z,202.46
2023-04-18T07:25:00.520Z,25.00
2023-04-18T07:25:51.025Z,202.37
2023-04-18T07:26:52.073Z,199.67
2023-04-18T07:27:51.009Z,199.91
2023-04-18T07:28:50.013Z,200.37
2023-04-18T07:29:50.978Z,200.70
2023-04-18T07:30:51.044Z,200.44
2023-04-18T07:31:17.637Z,25.00
2023-04-18T07:31:50.954Z,200.24
2023-04-18T07:32:51.018Z,199.55
2023-04-18T07:33:36.292Z,25.00
2023-04-18T07:33:50.966Z,197.74
2023-04-18T07:34:50.946Z,197.60
2023-04-18T07:35:50.997Z,197.60
2023-04-18T07:36:50.927Z,195.46
2023-04-18T07:37:50.926Z,196.92
2023-04-18T07:38:25.977Z,25.00
2023-04-18T07:38:50.916Z,196.85
2023-04-18T07:39:49.937Z,196.27
2023-04-18T07:40:49.904Z,194.47
2023-04-18T07:41:50.891Z,194.97
2023-04-18T07:42:50.961Z,195.66
2023-04-18T07:43:26.485Z,25.00
2023-04-18T07:43:50.907Z,193.47
2023-04-18T07:44:50.867Z,192.96
2023-04-18T07:45:50.910Z,193.23
2023-04-18T07:46:49.900Z,191.04
2023-04-18T07:47:50.866Z,191.90
2023-04-18T07:48:30.378Z,25.00
2023-04-18T07:48:50.852Z,191.86
2023-04-18T07:49:50.921Z,192.45
2023-04-18T07:50:50.973Z,189.48
2023-04-18T07:51:50.864Z,189.90
2023-04-18T07:52:50.816Z,188.81
2023-04-18T07:53:50.798Z,189.27
2023-04-18T07:54:49.807Z,187.87
2023-04-18T07:55:50.822Z,189.27
2023-04-18T07:56:50.811Z,189.51
2023-04-18T07:57:50.795Z,188.28
2023-04-18T07:58:30.210Z,25.00
2023-04-18T07:58:50.777Z,187.33
2023-04-18T07:59:50.771Z,186.77
2023-04-18T08:00:49.778Z,186.83
2023-04-18T08:01:50.749Z,187.96
2023-04-18T08:02:50.892Z,187.81
2023-04-18T08:03:26.843Z,25.00
2023-04-18T08:03:49.826Z,186.22
2023-04-18T08:04:51.041Z,185.18
2023-04-18T08:05:50.765Z,185.74
2023-04-18T08:06:02.445Z,25.00
2023-04-18T08:06:50.735Z,185.63
2023-04-18T08:07:49.831Z,185.00
2023-04-18T08:08:42.657Z,25.00
2023-04-18T08:08:50.704Z,186.61
2023-04-18T08:09:50.708Z,185.53
2023-04-18T08:10:49.707Z,184.41
2023-04-18T08:11:22.675Z,25.00
2023-04-18T08:11:50.739Z,186.77
2023-04-18T08:12:22.120Z,25.00
2023-04-18T08:12:50.700Z,183.08
2023-04-18T08:13:50.682Z,182.19
2023-04-18T08:14:50.697Z,182.76
2023-04-18T08:15:50.679Z,182.48
2023-04-18T08:16:50.662Z,184.31
2023-04-18T08:17:50.742Z,180.71
2023-04-18T08:18:50.640Z,179.39
2023-04-18T08:19:50.639Z,180.63
2023-04-18T08:20:49.651Z,179.64
2023-04-18T08:21:50.612Z,182.26
2023-04-18T08:22:44.022Z,25.00
2023-04-18T08:23:50.632Z,179.45
2023-04-18T08:25:03.832Z,180.23
2023-04-18T08:25:19.684Z,25.00
2023-04-18T08:25:50.605Z,179.59
2023-04-18T08:26:50.614Z,180.64
2023-04-18T08:27:50.598Z,180.74
2023-04-18T08:28:49.575Z,180.19
2023-04-18T08:28:59.497Z,25.00
2023-04-18T08:29:49.576Z,184.01
2023-04-18T08:30:49.555Z,180.12
2023-04-18T08:31:19.669Z,25.00
2023-04-18T08:31:50.611Z,178.39
2023-04-18T08:32:49.635Z,180.18
2023-04-18T08:33:42.563Z,25.00
2023-04-18T08:33:49.547Z,177.05
2023-04-18T08:34:50.549Z,177.94
2023-04-18T08:35:50.567Z,177.28
2023-04-18T08:36:50.504Z,175.68
2023-04-18T08:37:50.555Z,176.05
2023-04-18T08:38:50.501Z,175.26
2023-04-18T08:39:49.565Z,172.46
2023-04-18T08:40:50.482Z,175.10
2023-04-18T08:41:50.486Z,173.62
2023-04-18T08:42:49.500Z,174.72
2023-04-18T08:43:50.513Z,166.73
2023-04-18T08:44:49.475Z,131.13
2023-04-18T08:45:49.482Z,149.26
2023-04-18T08:46:50.942Z,160.72
2023-04-18T08:47:50.536Z,162.46
2023-04-18T08:48:50.413Z,164.88
2023-04-18T08:49:50.427Z,167.39
2023-04-18T08:50:50.428Z,169.71
2023-04-18T08:51:50.399Z,171.12
2023-04-18T08:52:49.429Z,170.21
2023-04-18T08:53:50.400Z,175.33
2023-04-18T08:54:49.385Z,175.91
2023-04-18T08:55:50.474Z,183.39
2023-04-18T08:56:50.554Z,191.61
2023-04-18T08:57:50.422Z,190.54
2023-04-18T08:58:49.407Z,188.61
2023-04-18T08:59:50.963Z,190.29
2023-04-18T09:00:50.547Z,191.04
2023-04-18T09:01:50.581Z,192.38
2023-04-18T09:02:50.779Z,192.94
2023-04-18T09:03:49.689Z,191.40
2023-04-18T09:04:49.734Z,192.07
2023-04-18T09:05:49.750Z,192.70
2023-04-18T09:06:49.808Z,191.50
2023-04-18T09:07:50.861Z,192.19
2023-04-18T09:08:50.891Z,193.04
2023-04-18T09:09:50.961Z,192.15
2023-04-18T09:10:50.996Z,193.85
2023-04-18T09:11:50.063Z,192.48
2023-04-18T09:12:50.431Z,191.66
2023-04-18T09:13:50.140Z,189.94
2023-04-18T09:14:51.210Z,191.25
2023-04-18T09:15:50.230Z,190.19
2023-04-18T09:16:51.326Z,191.51
2023-04-18T09:17:51.437Z,191.15
2023-04-18T09:18:51.389Z,190.85
2023-04-18T09:19:51.443Z,189.42
2023-04-18T09:20:51.468Z,189.27
2023-04-18T09:21:51.529Z,190.50
2023-04-18T09:22:51.596Z,187.86
2023-04-18T09:23:51.610Z,189.03
2023-04-18T09:24:51.650Z,187.94
2023-04-18T09:25:30.438Z,25.00
2023-04-18T09:25:51.709Z,186.68
2023-04-18T09:26:51.722Z,188.93
2023-04-18T09:27:51.813Z,183.50
2023-04-18T09:28:52.645Z,184.91
2023-04-18T09:29:51.846Z,188.24
2023-04-18T09:30:51.863Z,187.06
2023-04-18T09:31:51.803Z,187.53
2023-04-18T09:32:50.711Z,25.00
2023-04-18T09:32:51.873Z,186.48
2023-04-18T09:33:51.824Z,185.62
2023-04-18T09:34:50.768Z,185.66
2023-04-18T09:35:51.773Z,185.34
2023-04-18T09:36:51.847Z,184.23
2023-04-18T09:37:51.731Z,183.33
2023-04-18T09:38:50.902Z,184.77
2023-04-18T09:39:51.743Z,184.36
2023-04-18T09:40:41.278Z,25.00
2023-04-18T09:40:51.717Z,184.29
2023-04-18T09:41:42.257Z,25.00
2023-04-18T09:41:51.722Z,183.65
2023-04-18T09:42:51.739Z,182.48
2023-04-18T09:42:56.723Z,25.00
2023-04-18T09:43:50.728Z,182.40
2023-04-18T09:44:01.091Z,25.00
2023-04-18T09:44:51.698Z,178.90
2023-04-18T09:45:01.561Z,25.00
2023-04-18T09:45:50.740Z,177.48
2023-04-18T09:46:00.573Z,25.00
2023-04-18T09:46:51.014Z,178.67
2023-04-18T09:47:50.733Z,180.50
2023-04-18T09:48:52.177Z,180.14
2023-04-18T09:49:51.668Z,180.39
2023-04-18T09:50:50.676Z,184.78
2023-04-18T09:51:23.729Z,25.00
2023-04-18T09:51:52.047Z,185.36
2023-04-18T09:52:51.643Z,184.52
2023-04-18T09:53:51.640Z,189.30
2023-04-18T09:54:50.641Z,190.25
2023-04-18T09:55:50.621Z,191.02
2023-04-18T09:56:51.003Z,192.78
2023-04-18T09:57:50.600Z,191.77
2023-04-18T09:58:50.626Z,194.68
2023-04-18T09:59:50.601Z,199.15
2023-04-18T10:00:51.586Z,199.09
2023-04-18T10:01:51.649Z,204.06
2023-04-18T10:02:50.737Z,211.97
2023-04-18T10:03:51.691Z,215.01
2023-04-18T10:04:51.714Z,219.18
2023-04-18T10:05:51.684Z,219.47
2023-04-18T10:06:50.753Z,218.71
2023-04-18T10:07:51.766Z,217.07
2023-04-18T10:08:51.803Z,214.79
2023-04-18T10:09:51.859Z,213.46
2023-04-18T10:10:51.911Z,214.56
2023-04-18T10:11:51.952Z,218.74
2023-04-18T10:12:52.019Z,223.94
2023-04-18T10:13:52.073Z,232.48
2023-04-18T10:14:52.147Z,229.15
2023-04-18T10:15:51.196Z,223.21
2023-04-18T10:16:51.230Z,227.14
2023-04-18T10:18:03.458Z,220.70
2023-04-18T10:18:52.273Z,221.25
2023-04-18T10:19:51.277Z,221.91
2023-04-18T10:20:52.280Z,222.09
2023-04-18T10:21:52.264Z,226.04
2023-04-18T10:22:51.305Z,238.51
2023-04-18T10:23:51.286Z,241.13
2023-04-18T10:24:51.242Z,240.53
2023-04-18T10:25:52.238Z,240.60
2023-04-18T10:26:52.219Z,248.73
2023-04-18T10:27:52.230Z,244.16
2023-04-18T10:28:52.230Z,235.96
2023-04-18T10:29:52.234Z,233.00
2023-04-18T10:30:52.322Z,240.43
2023-04-18T10:31:52.347Z,242.55
2023-04-18T10:32:52.385Z,235.29
2023-04-18T10:34:03.371Z,230.51
2023-04-18T10:34:52.391Z,229.37
2023-04-18T10:35:51.382Z,228.21
2023-04-18T10:36:52.393Z,233.74
2023-04-18T10:37:34.290Z,25.00
2023-04-18T10:37:51.394Z,235.16
2023-04-18T10:38:52.379Z,230.03
2023-04-18T10:39:52.392Z,238.91
2023-04-18T10:40:52.381Z,248.01
2023-04-18T10:41:52.505Z,246.80
2023-04-18T10:42:52.340Z,248.34
2023-04-18T10:43:52.332Z,236.73
2023-04-18T10:44:52.332Z,250.93
2023-04-18T10:45:52.320Z,246.03
2023-04-18T10:46:52.613Z,234.00
2023-04-18T10:47:51.322Z,223.63
2023-04-18T10:48:52.306Z,220.35
2023-04-18T10:49:52.312Z,222.74
2023-04-18T10:50:51.275Z,217.84
2023-04-18T10:51:52.283Z,225.02
2023-04-18T10:52:52.294Z,217.88
2023-04-18T10:53:51.285Z,209.15
2023-04-18T10:54:52.265Z,200.18
2023-04-18T10:55:52.257Z,191.57
2023-04-18T10:56:52.250Z,211.48
2023-04-18T10:57:51.236Z,222.03
2023-04-18T10:58:51.387Z,227.34
2023-04-18T10:59:52.267Z,232.09
2023-04-18T11:00:52.251Z,237.98
2023-04-18T11:01:52.222Z,238.48
2023-04-18T11:02:51.594Z,231.44
2023-04-18T11:03:52.299Z,233.26
2023-04-18T11:04:51.222Z,238.03
2023-04-18T11:05:52.209Z,237.17
2023-04-18T11:06:51.221Z,239.07
2023-04-18T11:07:52.202Z,238.55
2023-04-18T11:08:52.194Z,237.15
2023-04-18T11:09:52.222Z,235.53
2023-04-18T11:10:52.201Z,237.17
2023-04-18T11:11:52.227Z,240.38
2023-04-18T11:12:52.211Z,234.66
2023-04-18T11:13:51.222Z,233.65
2023-04-18T11:14:52.222Z,238.12
2023-04-18T11:15:52.212Z,237.39
2023-04-18T11:16:51.305Z,242.47
2023-04-18T11:17:51.287Z,241.23
2023-04-18T11:18:52.398Z,241.48
2023-04-18T11:19:52.239Z,239.35
2023-04-18T11:20:52.241Z,241.11
2023-04-18T11:21:51.280Z,241.23
2023-04-18T11:22:52.255Z,241.56
2023-04-18T11:23:52.268Z,244.79
2023-04-18T11:24:52.283Z,246.99
2023-04-18T11:25:51.290Z,235.91
2023-04-18T11:26:52.305Z,235.79
2023-04-18T11:27:52.312Z,244.49
2023-04-18T11:28:52.292Z,246.43
2023-04-18T11:29:51.301Z,248.75
2023-04-18T11:30:52.290Z,247.06
2023-04-18T11:31:51.348Z,250.00
2023-04-18T11:32:52.409Z,245.46
2023-04-18T11:33:52.292Z,236.28
2023-04-18T11:34:52.320Z,230.36
2023-04-18T11:35:52.276Z,231.37
2023-04-18T11:36:52.278Z,230.53
2023-04-18T11:37:52.587Z,234.48
2023-04-18T11:38:51.297Z,222.51
2023-04-18T11:39:51.311Z,221.55
2023-04-18T11:40:51.426Z,214.01
2023-04-18T11:41:04.134Z,25.00
2023-04-18T11:41:52.302Z,208.91
2023-04-18T11:42:52.307Z,202.55
2023-04-18T11:43:51.313Z,218.90
2023-04-18T11:44:52.304Z,220.85
2023-04-18T11:45:51.384Z,226.19